createdAt,value
2023-03-01T00:00:55.842Z,16.10
2023-03-01T00:06:44.059Z,19.60
2023-03-01T00:09:21.795Z,17.70
2023-03-01T00:12:25.408Z,22.53
2023-03-01T00:19:00.071Z,15.93
2023-03-01T00:25:56.632Z,20.60
2023-03-01T00:28:57.373Z,24.33
2023-03-01T00:42:40.476Z,30.30
2023-03-01T00:45:32.062Z,24.23
2023-03-01T00:48:46.760Z,18.93
2023-03-01T00:52:08.518Z,17.93
2023-03-01T00:59:24.926Z,20.80
2023-03-01T01:03:01.179Z,16.97
2023-03-01T01:05:55.806Z,17.03
2023-03-01T01:09:15.677Z,19.43
2023-03-01T01:12:45.092Z,20.93
2023-03-01T01:27:37.786Z,15.13
2023-03-01T01:39:23.268Z,17.90
2023-03-01T01:45:39.128Z,22.90
2023-03-01T01:53:40.935Z,25.70
2023-03-01T01:56:47.367Z,21.83
2023-03-01T02:03:00.552Z,17.77
2023-03-01T02:13:17.322Z,21.20
2023-03-01T02:16:55.426Z,26.20
2023-03-01T02:24:40.599Z,26.87
2023-03-01T02:32:33.759Z,20.13
2023-03-01T02:36:05.186Z,19.03
2023-03-01T02:43:55.203Z,25.60
2023-03-01T02:50:45.315Z,20.47
2023-03-01T02:54:36.681Z,20.27
2023-03-01T02:57:25.659Z,18.63
2023-03-01T03:00:22.206Z,19.63
2023-03-01T03:03:42.207Z,21.83
2023-03-01T03:07:00.151Z,18.50
2023-03-01T03:10:33.791Z,21.40
2023-03-01T03:13:54.494Z,17.70
2023-03-01T03:20:11.227Z,16.80
2023-03-01T03:23:06.340Z,18.23
2023-03-01T03:30:08.340Z,19.30
2023-03-01T03:40:02.362Z,19.90
2023-03-01T03:47:35.287Z,23.07
2023-03-01T03:50:54.072Z,21.30
2023-03-01T03:57:07.249Z,18.20
2023-03-01T04:04:12.141Z,31.73
2023-03-01T04:15:04.705Z,20.13
2023-03-01T04:18:51.334Z,20.20
2023-03-01T04:22:27.634Z,22.20
2023-03-01T04:25:30.165Z,17.20
2023-03-01T04:32:31.530Z,24.13
2023-03-01T04:36:07.578Z,17.60
2023-03-01T04:39:26.649Z,32.47
2023-03-01T04:46:31.113Z,25.33
2023-03-01T04:51:06.290Z,20.37
2023-03-01T04:54:29.365Z,20.57
2023-03-01T04:58:07.412Z,23.53
2023-03-01T05:02:08.716Z,19.67
2023-03-01T05:05:11.969Z,20.47
2023-03-01T05:08:48.663Z,22.60
2023-03-01T05:19:31.776Z,34.70
2023-03-01T05:25:48.641Z,23.77
2023-03-01T05:38:19.834Z,23.30
2023-03-01T05:41:26.891Z,25.67
2023-03-01T05:49:02.957Z,23.87
2023-03-01T05:52:35.265Z,22.40
2023-03-01T05:56:12.450Z,26.57
2023-03-01T05:59:15.164Z,28.33
2023-03-01T06:16:25.989Z,34.10
2023-03-01T06:23:14.081Z,25.30
2023-03-01T06:29:17.793Z,25.07
2023-03-01T06:32:03.062Z,29.43
2023-03-01T06:34:44.855Z,24.43
2023-03-01T06:37:24.930Z,35.20
2023-03-01T06:40:45.737Z,29.00
2023-03-01T06:43:27.313Z,32.73
2023-03-01T06:46:07.347Z,23.80
2023-03-01T06:48:59.288Z,41.87
2023-03-01T06:58:27.005Z,25.47
2023-03-01T07:01:40.058Z,29.00
2023-03-01T07:08:03.943Z,28.70
2023-03-01T07:11:16.459Z,21.60
2023-03-01T07:14:07.568Z,24.00
2023-03-01T07:17:25.407Z,28.03
2023-03-01T07:20:04.847Z,35.37
2023-03-01T07:23:07.230Z,37.00
2023-03-01T07:26:04.334Z,37.33
2023-03-01T07:28:57.670Z,29.47
2023-03-01T07:32:13.964Z,29.43
2023-03-01T07:34:50.310Z,23.50
2023-03-01T07:38:04.702Z,29.40
2023-03-01T07:47:59.208Z,43.80
2023-03-01T07:50:47.959Z,24.87
2023-03-01T07:54:03.013Z,41.23
2023-03-01T07:56:37.157Z,15.97
2023-03-01T07:59:09.001Z,20.80
2023-03-01T08:01:54.835Z,21.03
2023-03-01T08:04:37.610Z,23.07
2023-03-01T08:07:21.286Z,19.60
2023-03-01T08:10:33.768Z,19.67
2023-03-01T08:13:26.569Z,15.33
2023-03-01T08:20:09.964Z,18.70
2023-03-01T08:22:58.610Z,13.27
2023-03-01T08:25:38.270Z,15.10
2023-03-01T08:28:18.459Z,14.73
2023-03-01T08:31:36.733Z,19.00
2023-03-01T08:41:30.700Z,10.13
2023-03-01T08:44:09.248Z,8.87
2023-03-01T08:48:03.528Z,11.20
2023-03-01T08:51:13.973Z,6.93
2023-03-01T08:55:19.282Z,7.23
2023-03-01T09:05:39.359Z,6.10
2023-03-01T09:08:49.170Z,9.50
2023-03-01T09:18:04.437Z,10.53
2023-03-01T09:20:54.502Z,10.20
2023-03-01T09:23:31.294Z,16.03
2023-03-01T09:27:08.963Z,7.27
2023-03-01T09:38:02.819Z,10.97
2023-03-01T09:44:24.489Z,5.83
2023-03-01T09:51:03.800Z,9.43
2023-03-01T09:54:02.810Z,10.73
2023-03-01T09:57:50.760Z,6.50
2023-03-01T10:01:18.728Z,10.70
2023-03-01T10:05:03.753Z,14.80
2023-03-01T10:08:35.352Z,10.80
2023-03-01T10:12:01.039Z,20.07
2023-03-01T10:19:13.457Z,11.03
2023-03-01T10:22:04.121Z,8.97
2023-03-01T10:24:46.990Z,7.00
2023-03-01T10:28:30.123Z,6.33
2023-03-01T10:31:43.770Z,9.70
2023-03-01T10:34:59.045Z,7.17
2023-03-01T10:41:51.416Z,11.40
2023-03-01T10:45:40.983Z,13.13
2023-03-01T10:48:31.599Z,10.20
2023-03-01T10:58:37.192Z,7.93
2023-03-01T11:01:56.004Z,18.10
2023-03-01T11:05:23.506Z,8.13
2023-03-01T11:08:35.117Z,10.00
2023-03-01T11:11:50.892Z,9.90
2023-03-01T11:15:05.069Z,6.13
2023-03-01T11:17:55.830Z,6.37
2023-03-01T11:20:42.484Z,14.40
2023-03-01T11:23:25.608Z,6.07
2023-03-01T11:26:14.276Z,5.57
2023-03-01T11:28:52.766Z,5.33
2023-03-01T11:31:29.599Z,8.50
2023-03-01T11:34:19.731Z,11.53
2023-03-01T11:37:14.327Z,8.93
2023-03-01T11:40:17.609Z,7.67
2023-03-01T11:43:16.007Z,32.17
2023-03-01T11:46:50.379Z,4.03
2023-03-01T11:50:06.191Z,3.90
2023-03-01T11:53:20.587Z,6.83
2023-03-01T11:56:37.300Z,17.87
2023-03-01T11:59:31.745Z,6.40
2023-03-01T12:02:53.800Z,7.10
2023-03-01T12:06:07.025Z,3.20
2023-03-01T12:09:24.140Z,4.77
2023-03-01T12:13:02.783Z,5.23
2023-03-01T12:16:39.229Z,3.27
2023-03-01T12:19:32.336Z,6.70
2023-03-01T12:23:19.613Z,3.40
2023-03-01T12:27:33.930Z,10.50
2023-03-01T12:38:46.488Z,4.33
2023-03-01T12:42:20.993Z,4.00
2023-03-01T12:58:15.788Z,4.10
2023-03-01T13:01:28.148Z,4.50
2023-03-01T13:08:29.222Z,3.97
2023-03-01T13:11:31.572Z,4.50
2023-03-01T13:18:50.683Z,3.40
2023-03-01T13:25:42.590Z,3.20
2023-03-01T13:29:09.086Z,3.67
2023-03-01T13:31:55.574Z,3.57
2023-03-01T13:35:42.296Z,5.00
2023-03-01T13:39:30.487Z,3.53
2023-03-01T13:43:04.166Z,4.17
2023-03-01T13:46:56.282Z,3.27
2023-03-01T13:50:02.110Z,3.97
2023-03-01T13:53:09.647Z,6.63
2023-03-01T13:56:03.082Z,9.57
2023-03-01T13:59:03.343Z,5.37
2023-03-01T14:02:26.947Z,7.33
2023-03-01T14:05:21.954Z,3.40
2023-03-01T14:08:02.174Z,5.30
2023-03-01T14:11:32.274Z,3.27
2023-03-01T14:15:07.122Z,2.63
2023-03-01T14:18:10.504Z,2.60
2023-03-01T14:21:24.949Z,2.47
2023-03-01T14:24:06.318Z,3.67
2023-03-01T14:26:52.079Z,2.50
2023-03-01T14:29:52.353Z,4.57
2023-03-01T14:36:10.354Z,3.20
2023-03-01T14:42:23.674Z,3.63
2023-03-01T14:49:36.758Z,2.80
2023-03-01T14:53:16.318Z,5.23
2023-03-01T14:56:08.330Z,3.80
2023-03-01T14:59:00.957Z,5.13
2023-03-01T15:02:14.584Z,5.67
2023-03-01T15:08:33.480Z,2.73
2023-03-01T15:11:49.171Z,5.63
2023-03-01T15:19:07.844Z,3.13
2023-03-01T15:21:39.499Z,2.30
2023-03-01T15:24:20.637Z,2.83
2023-03-01T15:26:56.167Z,7.13
2023-03-01T15:29:31.120Z,3.13
2023-03-01T15:32:32.071Z,3.50
2023-03-01T15:35:01.904Z,5.13
2023-03-01T15:37:49.530Z,2.80
2023-03-01T15:40:32.169Z,3.93
2023-03-01T15:43:05.522Z,6.20
2023-03-01T15:45:39.523Z,3.53
2023-03-01T15:48:21.052Z,3.93
2023-03-01T15:50:56.765Z,4.83
2023-03-01T15:53:23.633Z,9.17
2023-03-01T15:55:51.321Z,6.90
2023-03-01T15:58:24.944Z,5.17
2023-03-01T16:01:01.914Z,4.27
2023-03-01T16:03:31.333Z,4.33
2023-03-01T16:05:58.312Z,7.87
2023-03-01T16:08:25.220Z,8.90
2023-03-01T16:10:52.529Z,3.90
2023-03-01T16:13:20.277Z,3.63
2023-03-01T16:15:47.259Z,3.00
2023-03-01T16:18:14.132Z,3.33
2023-03-01T16:20:41.320Z,3.73
2023-03-01T16:23:09.766Z,3.83
2023-03-01T16:25:37.119Z,11.90
2023-03-01T16:28:09.687Z,3.93
2023-03-01T16:30:38.707Z,4.63
2023-03-01T16:33:23.029Z,7.60
2023-03-01T16:35:52.750Z,11.43
2023-03-01T16:38:19.661Z,4.93
2023-03-01T16:40:50.573Z,5.40
2023-03-01T16:43:17.488Z,4.10
2023-03-01T16:45:45.920Z,4.07
2023-03-01T16:48:13.371Z,7.20
2023-03-01T16:50:42.125Z,4.70
2023-03-01T16:53:09.155Z,5.20
2023-03-01T16:55:36.130Z,8.93
2023-03-01T16:58:03.587Z,4.47
2023-03-01T17:00:30.545Z,12.53
2023-03-01T17:02:57.520Z,5.23
2023-03-01T17:05:25.607Z,5.07
2023-03-01T17:07:52.594Z,4.80
2023-03-01T17:10:19.589Z,10.37
2023-03-01T17:12:50.736Z,19.53
2023-03-01T17:15:17.940Z,6.20
2023-03-01T17:17:44.965Z,7.47
2023-03-01T17:20:12.433Z,8.07
2023-03-01T17:22:39.344Z,11.10
2023-03-01T17:25:10.272Z,10.23
2023-03-01T17:27:38.988Z,12.30
2023-03-01T17:30:11.735Z,10.17
2023-03-01T17:32:39.259Z,18.43
2023-03-01T17:35:08.023Z,11.33
2023-03-01T17:37:37.000Z,6.77
2023-03-01T17:40:04.533Z,6.90
2023-03-01T17:42:31.487Z,6.43
2023-03-01T17:44:58.477Z,5.87
2023-03-01T17:47:25.452Z,5.27
2023-03-01T17:49:52.362Z,8.17
2023-03-01T17:52:23.718Z,5.30
2023-03-01T17:54:51.426Z,12.23
2023-03-01T17:57:18.561Z,8.33
2023-03-01T17:59:45.499Z,11.53
2023-03-01T18:02:15.554Z,10.67
2023-03-01T18:04:42.456Z,9.80
2023-03-01T18:07:09.398Z,9.33
2023-03-01T18:09:36.323Z,6.37
2023-03-01T18:12:03.254Z,10.70
2023-03-01T18:14:33.811Z,17.80
2023-03-01T18:17:06.639Z,18.93
2023-03-01T18:19:34.168Z,18.20
2023-03-01T18:22:01.075Z,21.00
2023-03-01T18:24:28.013Z,9.17
2023-03-01T18:26:54.897Z,18.20
2023-03-01T18:29:21.837Z,15.60
2023-03-01T18:31:49.034Z,9.53
2023-03-01T18:34:16.147Z,16.60
2023-03-01T18:36:47.836Z,16.93
2023-03-01T18:39:20.479Z,7.60
2023-03-01T18:41:47.441Z,10.80
2023-03-01T18:44:14.405Z,21.37
2023-03-01T18:46:41.456Z,33.73
2023-03-01T18:49:09.227Z,12.60
2023-03-01T18:51:36.238Z,19.20
2023-03-01T18:54:03.388Z,18.80
2023-03-01T18:56:32.459Z,14.03
2023-03-01T18:59:00.647Z,17.53
2023-03-01T19:01:30.840Z,17.10
2023-03-01T19:03:58.719Z,29.07
2023-03-01T19:06:31.745Z,20.00
2023-03-01T19:08:59.173Z,19.70
2023-03-01T19:11:31.093Z,20.23
2023-03-01T19:13:59.200Z,29.80
2023-03-01T19:16:30.227Z,21.47
2023-03-01T19:19:00.331Z,24.90
2023-03-01T19:21:30.467Z,15.87
2023-03-01T19:23:59.124Z,26.33
2023-03-01T19:26:28.092Z,17.07
2023-03-01T19:28:56.411Z,19.00
2023-03-01T19:31:26.786Z,107.43
2023-03-01T19:34:09.939Z,24.10
2023-03-01T19:36:41.717Z,45.40
2023-03-01T19:39:11.312Z,30.90
2023-03-01T19:41:38.240Z,27.07
2023-03-01T19:44:05.973Z,17.30
2023-03-01T19:46:34.158Z,37.90
2023-03-01T19:49:03.347Z,25.07
2023-03-01T19:51:33.315Z,14.30
2023-03-01T19:54:00.277Z,25.07
2023-03-01T19:56:27.340Z,17.77
2023-03-01T19:59:00.203Z,25.70
2023-03-01T20:01:29.748Z,21.90
2023-03-01T20:03:56.946Z,17.97
2023-03-01T20:06:25.748Z,14.43
2023-03-01T20:08:52.797Z,19.47
2023-03-01T20:11:20.497Z,29.17
2023-03-01T20:13:47.617Z,23.00
2023-03-01T20:16:20.627Z,42.47
2023-03-01T20:18:47.721Z,29.23
2023-03-01T20:21:23.923Z,33.90
2023-03-01T20:23:51.934Z,38.33
2023-03-01T20:26:20.361Z,17.23
2023-03-01T20:28:53.827Z,22.23
2023-03-01T20:31:23.982Z,13.30
2023-03-01T20:33:50.897Z,12.53
2023-03-01T20:36:17.776Z,19.23
2023-03-01T20:38:44.688Z,24.17
2023-03-01T20:41:13.568Z,17.90
2023-03-01T20:43:42.415Z,15.50
2023-03-01T20:46:13.488Z,28.60
2023-03-01T20:48:43.102Z,27.33
2023-03-01T20:51:12.848Z,18.30
2023-03-01T20:53:40.616Z,43.87
2023-03-01T20:56:14.555Z,28.97
2023-03-01T20:58:42.399Z,24.27
2023-03-01T21:01:13.434Z,25.57
2023-03-01T21:03:40.431Z,32.70
2023-03-01T21:06:07.360Z,30.93
2023-03-01T21:08:36.263Z,23.20
2023-03-01T21:11:06.258Z,22.67
2023-03-01T21:13:34.701Z,22.30
2023-03-01T21:16:07.819Z,18.70
2023-03-01T21:18:36.897Z,24.10
2023-03-01T21:21:20.273Z,13.80
2023-03-01T21:23:47.772Z,42.87
2023-03-01T21:26:21.626Z,24.93
2023-03-01T21:28:54.377Z,21.80
2023-03-01T21:31:25.035Z,23.03
2023-03-01T21:33:56.099Z,89.37
2023-03-01T21:36:25.856Z,45.27
2023-03-01T21:38:53.390Z,32.63
2023-03-01T21:41:27.048Z,24.73
2023-03-01T21:43:57.423Z,23.07
2023-03-01T21:46:26.185Z,17.67
2023-03-01T21:48:54.851Z,27.43
2023-03-01T21:51:26.163Z,42.30
2023-03-01T21:53:55.675Z,60.23
2023-03-01T21:56:26.828Z,56.03
2023-03-01T21:58:54.439Z,33.77
2023-03-01T22:01:26.042Z,18.63
2023-03-01T22:03:53.978Z,26.67
2023-03-01T22:06:29.509Z,30.43
2023-03-01T22:09:05.812Z,31.80
2023-03-01T22:11:35.745Z,21.43
2023-03-01T22:14:04.646Z,20.97
2023-03-01T22:16:34.716Z,20.40
2023-03-01T22:19:02.997Z,33.97
2023-03-01T22:21:30.039Z,31.33
2023-03-01T22:23:57.506Z,15.70
2023-03-01T22:26:35.855Z,30.77
2023-03-01T22:29:08.246Z,27.97
2023-03-01T22:31:35.506Z,20.57
2023-03-01T22:34:03.689Z,19.80
2023-03-01T22:36:31.017Z,39.30
2023-03-01T22:39:02.064Z,28.37
2023-03-01T22:41:44.974Z,17.23
2023-03-01T22:44:14.255Z,23.30
2023-03-01T22:46:42.416Z,24.07
2023-03-01T22:49:10.484Z,26.10
2023-03-01T22:51:40.854Z,25.43
2023-03-01T22:54:09.462Z,30.50
2023-03-01T22:56:38.372Z,25.40
2023-03-01T22:59:09.577Z,27.90
2023-03-01T23:01:38.988Z,22.93
2023-03-01T23:04:06.525Z,25.40
2023-03-01T23:06:34.504Z,25.90
2023-03-01T23:09:04.475Z,50.37
2023-03-01T23:11:31.820Z,19.77
2023-03-01T23:13:59.943Z,35.00
2023-03-01T23:16:27.072Z,35.17
2023-03-01T23:19:00.820Z,33.40
2023-03-01T23:21:28.097Z,37.13
2023-03-01T23:23:56.195Z,43.03
2023-03-01T23:26:26.948Z,62.93
2023-03-01T23:28:55.170Z,47.33
2023-03-01T23:31:22.194Z,39.87
2023-03-01T23:33:49.609Z,37.63
2023-03-01T23:36:29.129Z,38.07
2023-03-01T23:39:05.820Z,33.10
2023-03-01T23:41:34.622Z,39.83
2023-03-01T23:44:04.097Z,47.47
2023-03-01T23:46:35.701Z,39.13
2023-03-01T23:49:03.307Z,39.77
2023-03-01T23:51:30.247Z,38.90
2023-03-01T23:54:00.999Z,31.77
2023-03-01T23:56:33.689Z,36.63
2023-03-01T23:59:05.320Z,48.97
